Time;durP1;ratioP1;P1;durP2;ratioP2;P2;SDS_P1;SDS_P2;PMS_P1;PMS_P2;Temp;Humidity;BMP_temperature;BMP_pressure;BME280_temperature;BME280_humidity;BME280_pressure;Samples;Min_cycle;Max_cycle;Signal;HPM_P1;HPM_P2
2021/10/05 00:01:41;;;;;;;3.60;3.17;;;15.00;99.90;;;;;;5110919;28;20230;-72
2021/10/05 00:04:08;;;;;;;3.20;2.90;;;15.10;99.90;;;;;;5110912;28;20237;-72
2021/10/05 00:06:36;;;;;;;2.97;2.77;;;15.10;99.90;;;;;;5110863;27;20198;-72
2021/10/05 00:09:02;;;;;;;3.43;3.13;;;15.00;99.90;;;;;;5110462;28;20732;-72
2021/10/05 00:11:29;;;;;;;3.90;3.23;;;15.00;99.90;;;;;;5110477;28;20266;-72
2021/10/05 00:13:57;;;;;;;3.57;3.27;;;15.00;99.90;;;;;;5110865;28;20644;-72
2021/10/05 00:16:23;;;;;;;3.63;3.33;;;15.00;99.90;;;;;;5110412;28;20230;-72
2021/10/05 00:18:50;;;;;;;3.80;3.50;;;15.00;99.90;;;;;;5110765;27;20308;-71
2021/10/05 00:21:17;;;;;;;6.03;3.70;;;15.00;99.90;;;;;;5110661;28;20198;-71
2021/10/05 00:23:45;;;;;;;4.13;3.60;;;15.00;99.90;;;;;;5110809;28;20206;-71
2021/10/05 00:26:12;;;;;;;5.70;3.60;;;15.10;99.90;;;;;;5110690;28;20218;-71
2021/10/05 00:28:39;;;;;;;3.77;3.47;;;15.00;99.90;;;;;;5110350;28;20294;-71
2021/10/05 00:31:05;;;;;;;4.57;3.53;;;15.00;99.90;;;;;;5110841;28;20262;-71
2021/10/05 00:33:32;;;;;;;6.83;3.50;;;15.00;99.90;;;;;;5110473;28;20259;-71
2021/10/05 00:35:59;;;;;;;3.57;3.27;;;15.10;99.90;;;;;;5110569;28;20236;-71
2021/10/05 00:38:25;;;;;;;3.97;3.67;;;15.00;99.90;;;;;;5110653;28;20314;-73
2021/10/05 00:40:53;;;;;;;3.77;3.30;;;15.00;99.90;;;;;;5110850;28;20270;-73
2021/10/05 00:43:20;;;;;;;4.93;3.47;;;15.10;99.90;;;;;;5110713;28;20237;-73
2021/10/05 00:45:46;;;;;;;3.87;3.40;;;15.00;99.90;;;;;;5110597;28;20234;-73
2021/10/05 00:48:13;;;;;;;3.53;3.23;;;15.10;99.90;;;;;;5109573;28;20244;-73
2021/10/05 00:50:39;;;;;;;3.87;3.07;;;15.10;99.90;;;;;;5109949;28;20646;-73
2021/10/05 00:53:06;;;;;;;3.50;3.20;;;15.10;99.90;;;;;;5110183;28;20240;-73
2021/10/05 00:55:33;;;;;;;5.30;3.20;;;15.00;99.90;;;;;;5109986;28;20236;-73
2021/10/05 00:58:01;;;;;;;3.53;3.23;;;15.00;99.90;;;;;;5110267;28;20257;-73
2021/10/05 01:00:27;;;;;;;7.20;3.67;;;15.00;99.90;;;;;;5109657;28;20306;-72
2021/10/05 01:02:54;;;;;;;5.07;3.50;;;15.00;99.90;;;;;;5109950;27;20283;-71
2021/10/05 01:05:20;;;;;;;5.57;3.77;;;15.00;99.90;;;;;;5109773;28;20241;-72
2021/10/05 01:07:48;;;;;;;3.80;3.50;;;15.00;99.90;;;;;;5109996;28;20206;-72
2021/10/05 01:10:17;;;;;;;3.83;3.53;;;15.00;99.90;;;;;;5109796;28;20556;-72
2021/10/05 01:12:45;;;;;;;5.23;3.60;;;15.00;99.90;;;;;;5109490;28;20206;-72
2021/10/05 01:15:14;;;;;;;3.87;3.57;;;15.00;99.90;;;;;;5109403;28;20302;-72
2021/10/05 01:17:41;;;;;;;5.10;3.50;;;15.00;99.90;;;;;;5109112;28;20656;-71
2021/10/05 01:20:09;;;;;;;4.87;3.63;;;15.00;99.90;;;;;;5109627;28;20255;-72
2021/10/05 01:22:38;;;;;;;3.80;3.50;;;15.00;99.90;;;;;;5109187;28;20244;-71
2021/10/05 01:25:06;;;;;;;3.83;3.50;;;15.00;99.90;;;;;;5109485;28;20226;-71
2021/10/05 01:27:40;;;;;;;4.23;3.40;;;15.00;99.90;;;;;;5109451;28;20257;-71
2021/10/05 01:30:07;;;;;;;4.07;3.60;;;15.00;99.90;;;;;;5109570;28;20256;-71
2021/10/05 01:32:34;;;;;;;13.10;3.47;;;15.00;99.90;;;;;;5108858;28;20240;-71
2021/10/05 01:35:00;;;;;;;3.87;3.57;;;15.00;99.90;;;;;;5109296;28;20234;-72
2021/10/05 01:37:27;;;;;;;4.30;3.83;;;15.00;99.90;;;;;;5108423;28;20234;-72
2021/10/05 01:39:55;;;;;;;6.50;3.87;;;15.00;99.90;;;;;;5108819;28;20745;-72
2021/10/05 01:42:22;;;;;;;4.37;3.80;;;15.00;99.90;;;;;;5109272;28;20234;-72
2021/10/05 01:44:48;;;;;;;4.10;3.70;;;15.00;99.90;;;;;;5109200;28;20240;-72
2021/10/05 01:47:18;;;;;;;3.83;3.57;;;15.00;99.90;;;;;;5109094;27;20306;-72
2021/10/05 01:49:44;;;;;;;4.07;3.67;;;15.00;99.90;;;;;;5108998;28;20304;-72
2021/10/05 01:52:11;;;;;;;4.57;3.43;;;15.00;99.90;;;;;;5109201;28;20205;-72
2021/10/05 01:54:38;;;;;;;5.80;3.90;;;15.00;99.90;;;;;;5109138;28;20245;-72
2021/10/05 01:57:06;;;;;;;4.57;4.10;;;15.00;99.90;;;;;;5108954;28;20710;-72
2021/10/05 01:59:33;;;;;;;4.63;4.23;;;15.00;99.90;;;;;;5108635;28;20303;-72
2021/10/05 02:02:00;;;;;;;4.17;3.87;;;15.00;99.90;;;;;;5108406;28;20326;-72
2021/10/05 02:04:26;;;;;;;5.43;4.00;;;15.00;99.90;;;;;;5108792;28;20297;-72
2021/10/05 02:06:53;;;;;;;4.57;3.73;;;15.00;99.90;;;;;;5108910;28;20301;-72
2021/10/05 02:09:20;;;;;;;4.50;4.03;;;15.00;99.90;;;;;;5109048;28;20198;-72
2021/10/05 02:11:47;;;;;;;4.60;3.90;;;15.00;99.90;;;;;;5108479;28;20202;-72
2021/10/05 02:14:15;;;;;;;4.43;4.03;;;15.00;99.90;;;;;;5108898;28;20242;-71
2021/10/05 02:16:41;;;;;;;6.03;4.23;;;15.00;99.90;;;;;;5108460;28;20202;-72
2021/10/05 02:19:09;;;;;;;4.83;4.43;;;14.90;99.90;;;;;;5108320;28;20715;-71
2021/10/05 02:21:36;;;;;;;4.27;3.97;;;14.90;99.90;;;;;;5111860;28;20229;-71
2021/10/05 02:26:49;;;;;;;6.47;4.43;;;14.80;99.90;;;;;;5121433;27;20258;-71
2021/10/05 02:29:18;;;;;;;6.47;4.20;;;14.80;99.90;;;;;;5136181;27;20206;-72
2021/10/05 02:31:44;;;;;;;4.87;4.20;;;14.80;99.90;;;;;;5135822;27;20278;-72
2021/10/05 02:34:13;;;;;;;4.40;4.00;;;14.80;99.90;;;;;;5135911;27;20240;-71
2021/10/05 02:36:39;;;;;;;5.03;4.13;;;14.80;99.90;;;;;;5135786;27;20213;-71
2021/10/05 02:39:06;;;;;;;4.87;4.27;;;14.80;99.90;;;;;;5118981;27;20707;-71
2021/10/05 02:41:33;;;;;;;5.87;4.57;;;14.80;99.90;;;;;;5111692;27;20923;-71
2021/10/05 02:43:59;;;;;;;4.40;4.00;;;14.80;99.90;;;;;;5111922;28;20250;-72
2021/10/05 02:46:27;;;;;;;6.97;4.30;;;14.80;99.90;;;;;;5111423;27;20260;-71
2021/10/05 02:48:54;;;;;;;5.70;4.67;;;14.80;99.90;;;;;;5110280;27;20229;-71
2021/10/05 02:51:21;;;;;;;5.23;3.90;;;14.80;99.90;;;;;;5109652;28;20210;-71
2021/10/05 02:53:47;;;;;;;5.07;4.07;;;14.80;99.90;;;;;;5113910;27;20255;-71
2021/10/05 02:56:15;;;;;;;4.50;4.10;;;14.80;99.90;;;;;;5112167;27;20210;-71
2021/10/05 02:58:42;;;;;;;5.97;4.40;;;14.80;99.90;;;;;;5129500;27;20722;-72
2021/10/05 03:01:08;;;;;;;4.57;3.87;;;14.80;99.90;;;;;;5132094;27;20190;-72
2021/10/05 03:03:36;;;;;;;7.27;3.70;;;14.80;99.90;;;;;;5130622;27;20278;-72
2021/10/05 03:06:05;;;;;;;4.63;3.40;;;14.80;99.90;;;;;;5130522;27;20216;-72
2021/10/05 03:08:34;;;;;;;6.67;3.60;;;14.80;99.90;;;;;;5130359;27;20247;-71
2021/10/05 03:11:01;;;;;;;6.97;3.60;;;14.80;99.90;;;;;;5130451;27;20216;-72
2021/10/05 03:13:32;;;;;;;6.03;3.10;;;14.70;99.90;;;;;;5127698;27;20254;-72
2021/10/05 03:15:59;;;;;;;6.43;3.70;;;14.70;99.90;;;;;;5114273;28;20196;-72
2021/10/05 03:18:26;;;;;;;4.47;3.07;;;14.70;99.90;;;;;;5114243;27;20234;-72
2021/10/05 03:20:54;;;;;;;4.63;3.00;;;14.70;99.90;;;;;;5112831;27;20206;-73
2021/10/05 03:23:20;;;;;;;3.80;3.40;;;14.70;99.90;;;;;;5113651;28;20618;-72
2021/10/05 03:25:47;;;;;;;4.33;3.50;;;14.80;99.90;;;;;;5113059;27;20202;-72
2021/10/05 03:28:13;;;;;;;5.53;3.13;;;14.80;99.90;;;;;;5113380;28;20310;-72
2021/10/05 03:30:40;;;;;;;4.07;2.87;;;14.70;99.90;;;;;;5113604;28;20247;-72
2021/10/05 03:33:07;;;;;;;3.83;3.00;;;14.70;99.90;;;;;;5110729;27;20233;-72
2021/10/05 03:35:33;;;;;;;4.63;2.80;;;14.70;99.90;;;;;;5111166;28;20778;-72
2021/10/05 03:38:02;;;;;;;5.73;2.30;;;14.70;99.90;;;;;;5111491;28;20236;-73
2021/10/05 03:40:28;;;;;;;6.27;2.40;;;14.70;99.90;;;;;;5111134;28;20210;-73
2021/10/05 03:42:55;;;;;;;2.63;2.27;;;14.70;99.90;;;;;;5111422;28;20234;-73
2021/10/05 03:45:22;;;;;;;6.33;2.43;;;14.80;99.90;;;;;;5111204;27;20253;-73
2021/10/05 03:47:48;;;;;;;4.93;2.97;;;14.70;99.90;;;;;;5111175;28;20198;-73
2021/10/05 03:50:15;;;;;;;5.03;2.30;;;14.70;99.90;;;;;;5111452;28;20267;-73
2021/10/05 03:52:42;;;;;;;3.33;2.10;;;14.70;99.90;;;;;;5111312;28;20202;-73
2021/10/05 03:55:10;;;;;;;3.30;2.13;;;14.70;99.90;;;;;;5111231;28;20234;-73
2021/10/05 03:57:38;;;;;;;3.33;2.27;;;14.70;99.90;;;;;;5111164;28;20202;-73
2021/10/05 04:00:07;;;;;;;5.57;2.17;;;14.70;99.90;;;;;;5110749;28;20245;-73
2021/10/05 04:02:33;;;;;;;4.90;2.57;;;14.70;99.90;;;;;;5111025;28;20222;-73
2021/10/05 04:05:00;;;;;;;3.97;2.07;;;14.70;99.90;;;;;;5110946;28;20205;-73
2021/10/05 04:07:27;;;;;;;4.90;2.13;;;14.60;99.90;;;;;;5111116;28;20234;-73
2021/10/05 04:09:54;;;;;;;4.70;1.80;;;14.60;99.90;;;;;;5111180;28;20267;-73
2021/10/05 04:12:21;;;;;;;6.17;2.30;;;14.60;99.90;;;;;;5111069;28;20203;-73
2021/10/05 04:14:50;;;;;;;4.37;2.13;;;14.60;99.90;;;;;;5110908;27;20202;-73
2021/10/05 04:17:17;;;;;;;4.87;1.77;;;14.50;99.90;;;;;;5110751;28;20583;-73
2021/10/05 04:19:43;;;;;;;4.53;1.93;;;14.40;99.90;;;;;;5110598;28;20279;-73
2021/10/05 04:22:10;;;;;;;3.47;1.70;;;14.30;99.90;;;;;;5111001;27;20255;-73
2021/10/05 04:24:36;;;;;;;4.00;1.77;;;14.30;99.90;;;;;;5110693;28;20253;-73
2021/10/05 04:27:09;;;;;;;6.60;2.00;;;14.40;99.90;;;;;;5110588;28;20299;-73
2021/10/05 04:29:38;;;;;;;5.77;1.97;;;14.30;99.90;;;;;;5098336;28;20670;-73
2021/10/05 04:32:06;;;;;;;4.43;1.83;;;14.30;99.90;;;;;;5089915;28;20726;-73
2021/10/05 04:34:32;;;;;;;4.50;2.00;;;14.30;99.90;;;;;;5090363;28;20206;-73
2021/10/05 04:36:59;;;;;;;3.90;1.90;;;14.30;99.90;;;;;;5090172;28;20255;-73
2021/10/05 04:39:26;;;;;;;2.87;1.63;;;14.30;99.90;;;;;;5090066;28;20258;-73
2021/10/05 04:41:52;;;;;;;3.03;1.70;;;14.30;99.90;;;;;;5090013;28;20239;-73
2021/10/05 04:44:19;;;;;;;5.10;1.90;;;14.30;99.90;;;;;;5089734;28;20629;-73
2021/10/05 04:46:47;;;;;;;2.97;1.67;;;14.40;99.90;;;;;;5089628;28;20250;-73
2021/10/05 04:49:13;;;;;;;5.87;2.00;;;14.40;99.90;;;;;;5089927;28;20259;-73
2021/10/05 04:51:40;;;;;;;1.70;1.60;;;14.40;99.90;;;;;;5089824;28;20260;-73
2021/10/05 04:54:07;;;;;;;5.90;1.97;;;14.40;99.90;;;;;;5089055;28;20238;-73
2021/10/05 04:56:33;;;;;;;1.93;1.60;;;14.50;99.90;;;;;;5089796;28;20234;-73
2021/10/05 04:59:00;;;;;;;4.10;1.60;;;14.40;99.90;;;;;;5089392;28;20270;-73
2021/10/05 05:01:27;;;;;;;5.03;1.90;;;14.50;99.90;;;;;;5089667;28;20254;-73
2021/10/05 05:03:54;;;;;;;6.07;2.10;;;14.50;99.90;;;;;;5089220;28;20245;-73
2021/10/05 05:06:21;;;;;;;3.67;2.20;;;14.50;99.90;;;;;;5089306;28;20229;-73
2021/10/05 05:08:48;;;;;;;3.73;1.97;;;14.50;99.90;;;;;;5089119;28;20246;-73
2021/10/05 05:11:14;;;;;;;4.47;2.20;;;14.50;99.90;;;;;;5089546;28;20643;-73
2021/10/05 05:13:41;;;;;;;2.87;2.23;;;14.60;99.90;;;;;;5088427;28;20256;-73
2021/10/05 05:16:07;;;;;;;4.97;2.73;;;14.50;99.90;;;;;;5089401;28;20249;-73
2021/10/05 05:18:34;;;;;;;6.33;2.80;;;14.50;99.90;;;;;;5088540;28;20830;-73
2021/10/05 05:21:02;;;;;;;4.90;2.60;;;14.50;99.90;;;;;;5089489;28;20234;-73
2021/10/05 05:23:28;;;;;;;4.50;2.73;;;14.50;99.90;;;;;;5089087;28;20254;-70
2021/10/05 05:25:55;;;;;;;6.03;2.67;;;14.50;99.90;;;;;;5088899;28;20239;-71
2021/10/05 05:28:22;;;;;;;4.37;2.03;;;14.50;99.90;;;;;;5089244;28;20327;-70
2021/10/05 05:30:48;;;;;;;5.17;2.17;;;14.50;99.90;;;;;;5088703;28;20689;-71
2021/10/05 05:33:15;;;;;;;6.13;2.23;;;14.40;99.90;;;;;;5089300;28;20252;-70
2021/10/05 05:35:41;;;;;;;4.13;1.93;;;14.40;99.90;;;;;;5088811;28;20202;-71
2021/10/05 05:38:09;;;;;;;7.77;2.13;;;14.30;99.90;;;;;;5088658;28;20669;-71
2021/10/05 05:40:36;;;;;;;4.43;2.40;;;14.20;99.90;;;;;;5088730;28;20296;-71
2021/10/05 05:43:03;;;;;;;5.83;2.40;;;14.30;99.90;;;;;;5088728;28;20295;-71
2021/10/05 05:45:33;;;;;;;5.80;2.67;;;14.30;99.90;;;;;;5088895;28;20284;-71
2021/10/05 05:47:59;;;;;;;4.77;2.10;;;14.30;99.90;;;;;;5088464;28;20661;-71
2021/10/05 05:50:26;;;;;;;2.80;2.27;;;14.30;99.90;;;;;;5088948;28;20211;-71
2021/10/05 05:52:53;;;;;;;3.80;2.03;;;14.40;99.90;;;;;;5088516;28;20207;-71
2021/10/05 05:55:21;;;;;;;6.23;2.60;;;14.30;99.90;;;;;;5088492;28;20275;-71
2021/10/05 05:57:50;;;;;;;4.80;2.50;;;14.40;99.90;;;;;;5088221;28;20252;-71
2021/10/05 06:00:18;;;;;;;3.40;2.30;;;14.30;99.90;;;;;;5088066;28;21026;-71
2021/10/05 06:02:45;;;;;;;4.20;2.60;;;14.30;99.90;;;;;;5088324;28;20275;-71
2021/10/05 06:05:12;;;;;;;7.33;2.50;;;14.30;99.90;;;;;;5104919;28;20230;-72
2021/10/05 06:07:39;;;;;;;6.30;2.93;;;14.40;99.90;;;;;;5108415;28;20237;-72
2021/10/05 06:10:08;;;;;;;6.83;3.17;;;14.40;99.90;;;;;;5108788;28;20262;-72
2021/10/05 06:12:39;;;;;;;3.83;2.87;;;14.40;99.90;;;;;;5108756;28;20210;-72
2021/10/05 06:15:07;;;;;;;4.07;3.00;;;14.40;99.90;;;;;;5108611;28;20197;-72
2021/10/05 06:17:36;;;;;;;3.03;2.53;;;14.40;99.90;;;;;;5108560;28;20262;-72
2021/10/05 06:20:03;;;;;;;5.37;3.07;;;14.30;99.90;;;;;;5108485;28;20229;-72
2021/10/05 06:22:30;;;;;;;3.07;2.70;;;14.40;99.90;;;;;;5108587;28;20286;-72
2021/10/05 06:24:57;;;;;;;3.67;3.03;;;14.30;99.90;;;;;;5108536;28;20651;-72
2021/10/05 06:27:23;;;;;;;7.03;2.70;;;14.40;99.90;;;;;;5108640;28;20218;-73
2021/10/05 06:29:51;;;;;;;5.03;2.67;;;14.30;99.90;;;;;;5108304;28;20202;-73
2021/10/05 06:32:18;;;;;;;3.50;3.20;;;14.30;99.90;;;;;;5108453;28;20202;-72
2021/10/05 06:34:48;;;;;;;5.87;2.90;;;14.30;99.90;;;;;;5108416;28;20612;-72
2021/10/05 06:37:15;;;;;;;3.80;2.60;;;14.20;99.90;;;;;;5108584;28;20201;-73
2021/10/05 06:39:44;;;;;;;6.53;3.10;;;14.20;99.90;;;;;;5108417;28;20218;-73
2021/10/05 06:42:11;;;;;;;4.67;3.13;;;14.30;99.90;;;;;;5108477;28;20210;-73
2021/10/05 06:44:38;;;;;;;5.83;3.47;;;14.30;99.90;;;;;;5107794;28;20257;-72
2021/10/05 06:47:11;;;;;;;3.07;2.60;;;14.30;99.90;;;;;;5108451;28;20226;-72
2021/10/05 06:49:43;;;;;;;5.43;3.57;;;14.30;99.90;;;;;;5108583;28;20190;-73
2021/10/05 06:52:10;;;;;;;5.03;3.10;;;14.40;99.90;;;;;;5108427;28;20540;-72
2021/10/05 06:54:38;;;;;;;3.70;3.17;;;14.40;99.90;;;;;;5108015;28;20255;-72
2021/10/05 06:57:07;;;;;;;7.73;2.93;;;14.40;99.90;;;;;;5108452;28;20289;-73
2021/10/05 06:59:35;;;;;;;5.07;3.53;;;14.50;99.90;;;;;;5108187;28;20311;-72
2021/10/05 07:02:07;;;;;;;7.30;3.10;;;14.40;99.90;;;;;;5108340;28;20270;-73
2021/10/05 07:04:37;;;;;;;7.00;3.67;;;14.50;99.90;;;;;;5108280;28;20206;-73
2021/10/05 07:07:07;;;;;;;7.43;3.47;;;14.60;99.90;;;;;;5108734;28;20263;-73
2021/10/05 07:09:36;;;;;;;4.53;3.43;;;14.50;99.90;;;;;;5111956;28;20259;-73
2021/10/05 07:12:03;;;;;;;8.83;3.70;;;14.60;99.90;;;;;;5112093;28;20209;-73
2021/10/05 07:14:31;;;;;;;5.80;3.83;;;14.60;99.90;;;;;;5111900;28;20607;-73
2021/10/05 07:17:03;;;;;;;5.47;4.10;;;14.60;99.90;;;;;;5112012;28;20267;-72
2021/10/05 07:19:37;;;;;;;5.47;4.30;;;14.60;99.90;;;;;;5111564;28;20218;-72
2021/10/05 07:22:06;;;;;;;5.87;4.60;;;14.60;99.90;;;;;;5111932;28;20229;-72
2021/10/05 07:24:35;;;;;;;6.23;4.03;;;14.50;99.90;;;;;;5111891;28;20234;-72
2021/10/05 07:27:01;;;;;;;4.67;4.23;;;14.50;99.90;;;;;;5111455;28;20251;-72
2021/10/05 07:29:28;;;;;;;8.20;4.80;;;14.50;99.90;;;;;;5111692;28;20202;-72
2021/10/05 07:31:55;;;;;;;6.93;4.77;;;14.40;99.90;;;;;;5111656;27;20242;-72
2021/10/05 07:34:21;;;;;;;4.57;4.13;;;14.30;99.90;;;;;;5111414;28;20731;-72
2021/10/05 07:36:49;;;;;;;5.47;4.60;;;14.30;99.90;;;;;;5111568;28;20240;-72
2021/10/05 07:39:16;;;;;;;5.27;4.77;;;14.30;99.90;;;;;;5111644;28;20267;-72
2021/10/05 07:41:43;;;;;;;5.03;4.50;;;14.30;99.90;;;;;;5111287;28;20198;-72
2021/10/05 07:44:10;;;;;;;5.67;5.17;;;14.30;99.90;;;;;;5110988;28;20650;-72
2021/10/05 07:46:37;;;;;;;7.07;6.00;;;14.30;99.90;;;;;;5111524;28;20240;-72
2021/10/05 07:49:04;;;;;;;8.47;5.17;;;14.20;99.90;;;;;;5111310;28;20202;-72
2021/10/05 07:51:31;;;;;;;6.50;5.20;;;14.20;99.90;;;;;;5111416;28;20202;-72
2021/10/05 07:53:58;;;;;;;9.03;5.40;;;14.30;99.90;;;;;;5111154;28;20235;-72
2021/10/05 07:56:25;;;;;;;7.07;6.10;;;14.30;99.90;;;;;;5111229;28;20230;-72
2021/10/05 07:58:52;;;;;;;7.70;5.77;;;14.30;99.90;;;;;;5111059;27;20318;-72
2021/10/05 08:01:18;;;;;;;7.17;6.23;;;14.30;99.90;;;;;;5111044;28;20768;-72
2021/10/05 08:03:45;;;;;;;6.83;6.10;;;14.30;99.90;;;;;;5110827;28;20236;-72
2021/10/05 08:06:12;;;;;;;8.00;6.87;;;14.40;99.90;;;;;;5111071;28;20233;-72
2021/10/05 08:08:38;;;;;;;10.30;6.33;;;14.40;99.90;;;;;;5110992;28;20238;-72
2021/10/05 08:11:06;;;;;;;7.73;6.17;;;14.40;99.90;;;;;;5110730;28;20198;-72
2021/10/05 08:13:33;;;;;;;8.30;6.27;;;14.40;99.90;;;;;;5110025;28;20216;-72
2021/10/05 08:15:59;;;;;;;10.13;6.77;;;14.40;99.90;;;;;;5110889;28;20689;-72
2021/10/05 08:18:26;;;;;;;9.57;7.47;;;14.40;99.90;;;;;;5110586;28;20213;-72
2021/10/05 08:20:53;;;;;;;8.77;7.00;;;14.50;99.90;;;;;;5110062;28;20696;-72
2021/10/05 08:23:20;;;;;;;8.03;7.33;;;14.50;99.90;;;;;;5111012;27;20222;-72
2021/10/05 08:25:49;;;;;;;9.50;7.80;;;14.50;99.90;;;;;;5110285;28;20291;-72
2021/10/05 08:28:17;;;;;;;8.03;7.30;;;14.50;99.90;;;;;;5110715;28;20231;-72
2021/10/05 08:30:44;;;;;;;9.27;7.43;;;14.50;99.90;;;;;;5110329;28;20215;-72
2021/10/05 08:33:10;;;;;;;8.70;7.90;;;14.50;99.90;;;;;;5110409;28;20198;-72
2021/10/05 08:35:37;;;;;;;11.03;7.20;;;14.50;99.90;;;;;;5110202;28;20238;-72
2021/10/05 08:38:04;;;;;;;10.47;7.37;;;14.50;99.90;;;;;;5110212;28;20726;-72
2021/10/05 08:40:31;;;;;;;8.40;7.57;;;14.40;99.90;;;;;;5110195;28;20271;-72
2021/10/05 08:42:58;;;;;;;10.73;7.60;;;14.50;99.90;;;;;;5110255;28;20241;-72
2021/10/05 08:45:26;;;;;;;8.10;7.40;;;14.50;99.90;;;;;;5110170;28;20222;-72
2021/10/05 08:47:53;;;;;;;11.23;7.70;;;14.50;99.90;;;;;;5109794;28;20218;-72
2021/10/05 08:50:21;;;;;;;8.73;7.83;;;14.60;99.90;;;;;;5110169;28;20206;-72
2021/10/05 08:52:47;;;;;;;9.87;8.37;;;14.50;99.90;;;;;;5109974;28;20294;-72
2021/10/05 08:55:14;;;;;;;10.77;8.40;;;14.50;99.90;;;;;;5110063;28;20230;-72
2021/10/05 08:57:41;;;;;;;8.97;8.07;;;14.50;99.90;;;;;;5110112;28;20255;-73
2021/10/05 09:00:09;;;;;;;10.30;9.20;;;14.50;99.90;;;;;;5108655;27;20277;-72
2021/10/05 09:02:45;;;;;;;11.70;9.13;;;14.50;99.90;;;;;;5109916;27;20237;-72
2021/10/05 09:05:12;;;;;;;12.17;8.80;;;14.60;99.90;;;;;;5109549;28;20258;-72
2021/10/05 09:07:43;;;;;;;10.60;9.07;;;14.60;99.90;;;;;;5110024;28;20271;-72
2021/10/05 09:10:11;;;;;;;11.37;9.67;;;14.60;99.90;;;;;;5109822;28;20198;-72
2021/10/05 09:12:37;;;;;;;13.43;10.37;;;14.70;99.90;;;;;;5109670;28;20614;-72
2021/10/05 09:15:07;;;;;;;11.63;10.17;;;14.70;99.90;;;;;;5109620;28;20225;-73
2021/10/05 09:17:34;;;;;;;11.27;10.10;;;14.70;99.90;;;;;;5109361;28;21068;-72
2021/10/05 09:20:02;;;;;;;12.23;10.93;;;14.70;99.90;;;;;;5109202;28;20205;-72
2021/10/05 09:22:30;;;;;;;12.40;11.10;;;14.80;99.90;;;;;;5109252;28;20723;-73
2021/10/05 09:24:59;;;;;;;13.70;11.50;;;14.80;99.90;;;;;;5108434;28;20236;-72
2021/10/05 09:27:27;;;;;;;14.13;11.67;;;14.80;99.90;;;;;;5109444;28;20230;-72
2021/10/05 09:29:54;;;;;;;14.83;11.50;;;14.70;99.90;;;;;;5109369;28;20213;-72
2021/10/05 09:32:25;;;;;;;12.00;10.20;;;14.70;99.90;;;;;;5108636;28;20253;-72
2021/10/05 09:34:54;;;;;;;13.67;10.30;;;14.70;99.90;;;;;;5109138;27;20198;-72
2021/10/05 09:37:24;;;;;;;11.27;10.13;;;14.60;99.90;;;;;;5109467;28;20325;-72
2021/10/05 09:39:52;;;;;;;10.43;9.00;;;14.70;99.90;;;;;;5109182;28;20201;-73
2021/10/05 09:42:22;;;;;;;11.57;9.67;;;14.60;99.90;;;;;;5109341;28;20237;-72
2021/10/05 09:44:53;;;;;;;9.83;8.87;;;14.60;99.90;;;;;;5108540;28;20283;-72
2021/10/05 09:47:30;;;;;;;9.27;8.37;;;14.60;99.90;;;;;;5109153;28;20206;-72
2021/10/05 09:49:57;;;;;;;9.87;8.83;;;14.70;99.90;;;;;;5107949;28;20190;-72
2021/10/05 09:52:37;;;;;;;10.77;8.97;;;14.70;99.90;;;;;;5109147;28;20267;-72
2021/10/05 09:55:04;;;;;;;9.60;8.10;;;14.60;99.90;;;;;;5108462;28;20634;-72
2021/10/05 09:57:31;;;;;;;9.20;8.30;;;14.60;99.90;;;;;;5108818;28;20222;-72
2021/10/05 09:59:57;;;;;;;10.50;8.37;;;14.70;99.90;;;;;;5108242;28;20785;-72
2021/10/05 10:02:24;;;;;;;15.07;9.93;;;14.70;99.90;;;;;;5108416;27;20748;-72
2021/10/05 10:04:51;;;;;;;11.47;9.53;;;14.60;99.90;;;;;;5108560;28;20472;-72
2021/10/05 10:07:19;;;;;;;10.47;9.43;;;14.70;99.90;;;;;;5108731;28;20202;-72
2021/10/05 10:09:47;;;;;;;12.10;10.30;;;14.60;99.90;;;;;;5108726;28;20206;-72
2021/10/05 10:12:14;;;;;;;10.47;9.43;;;14.70;99.90;;;;;;5108825;28;20242;-72
2021/10/05 10:14:40;;;;;;;10.97;9.63;;;14.70;99.90;;;;;;5108633;28;20505;-72
2021/10/05 10:17:07;;;;;;;10.57;9.43;;;14.70;99.90;;;;;;5108607;28;20206;-72
2021/10/05 10:19:36;;;;;;;11.53;9.90;;;14.70;99.90;;;;;;5108791;28;20229;-72
2021/10/05 10:22:08;;;;;;;10.80;9.70;;;14.70;99.90;;;;;;5108428;28;20241;-72
2021/10/05 10:24:47;;;;;;;10.93;9.57;;;14.70;99.90;;;;;;5108666;28;20251;-72
2021/10/05 10:27:14;;;;;;;13.40;9.20;;;14.80;99.90;;;;;;5108716;28;20281;-72
2021/10/05 10:29:41;;;;;;;10.47;9.47;;;14.80;99.90;;;;;;5108665;28;20301;-72
2021/10/05 10:32:13;;;;;;;10.63;9.30;;;14.90;99.90;;;;;;5108477;28;20708;-73
2021/10/05 10:34:43;;;;;;;9.73;8.70;;;14.90;99.90;;;;;;5108625;28;20271;-72
2021/10/05 10:37:18;;;;;;;10.47;9.40;;;14.90;99.90;;;;;;5108199;28;20683;-72
2021/10/05 10:39:47;;;;;;;10.13;9.10;;;14.90;99.90;;;;;;5108396;28;20235;-72
2021/10/05 10:42:26;;;;;;;11.13;9.30;;;14.90;99.90;;;;;;5109224;28;21095;-72
2021/10/05 10:44:52;;;;;;;10.80;9.50;;;15.00;99.90;;;;;;5112580;28;20324;-72
2021/10/05 10:47:21;;;;;;;11.27;10.03;;;15.00;99.90;;;;;;5112505;28;20202;-72
2021/10/05 10:49:56;;;;;;;10.93;9.83;;;15.00;99.90;;;;;;5112349;28;20213;-72
2021/10/05 10:52:27;;;;;;;13.30;9.80;;;15.00;99.90;;;;;;5112797;28;20606;-72
2021/10/05 10:54:56;;;;;;;11.33;10.23;;;15.00;99.90;;;;;;5112528;28;20209;-72
2021/10/05 10:57:33;;;;;;;11.40;10.30;;;15.00;99.90;;;;;;5112401;28;20206;-72
2021/10/05 11:00:14;;;;;;;12.60;11.27;;;15.00;99.90;;;;;;5111839;28;20238;-72
2021/10/05 11:02:44;;;;;;;12.47;11.17;;;15.00;99.90;;;;;;5112450;28;20295;-72
2021/10/05 11:05:11;;;;;;;12.87;11.67;;;15.10;99.90;;;;;;5112098;28;20206;-72
2021/10/05 11:07:39;;;;;;;12.90;11.37;;;15.10;99.90;;;;;;5112233;28;20210;-72
2021/10/05 11:10:08;;;;;;;13.93;11.90;;;15.10;99.90;;;;;;5112024;28;20198;-72
2021/10/05 11:12:39;;;;;;;12.37;11.17;;;15.10;99.90;;;;;;5112375;28;20261;-73
2021/10/05 11:15:07;;;;;;;13.37;12.07;;;15.10;99.90;;;;;;5111707;28;20691;-72
2021/10/05 11:17:34;;;;;;;13.57;12.17;;;15.00;99.90;;;;;;5111971;28;20210;-72
2021/10/05 11:20:07;;;;;;;14.57;13.00;;;15.00;99.90;;;;;;5111992;28;20237;-72
2021/10/05 11:22:34;;;;;;;14.90;13.40;;;15.00;99.90;;;;;;5111851;28;20238;-72
2021/10/05 11:25:01;;;;;;;14.33;12.60;;;15.00;99.90;;;;;;5111357;28;20692;-72
2021/10/05 11:27:30;;;;;;;14.97;13.40;;;15.00;99.90;;;;;;5111489;28;20711;-72
2021/10/05 11:30:01;;;;;;;15.17;13.57;;;15.00;99.90;;;;;;5111565;28;20221;-72
2021/10/05 11:32:30;;;;;;;17.67;13.60;;;15.10;99.90;;;;;;5111384;28;20685;-72
2021/10/05 11:34:57;;;;;;;15.10;13.50;;;15.10;99.90;;;;;;5111600;28;20206;-72
2021/10/05 11:37:25;;;;;;;15.33;13.83;;;15.10;99.90;;;;;;5111600;28;20230;-72
2021/10/05 11:39:52;;;;;;;15.77;13.97;;;15.10;99.90;;;;;;5111391;28;20210;-72
2021/10/05 11:42:21;;;;;;;15.50;13.87;;;15.10;99.90;;;;;;5111004;28;20631;-72
2021/10/05 11:44:50;;;;;;;16.50;14.90;;;15.10;99.90;;;;;;5111554;28;20248;-72
2021/10/05 11:47:19;;;;;;;16.23;14.53;;;15.10;99.90;;;;;;5111614;28;20241;-72
2021/10/05 11:49:47;;;;;;;15.27;13.63;;;15.10;99.90;;;;;;5111218;28;20206;-72
2021/10/05 11:52:16;;;;;;;15.00;13.63;;;15.10;99.90;;;;;;5111334;28;20278;-72
2021/10/05 11:54:43;;;;;;;18.63;15.67;;;15.10;99.90;;;;;;5109092;28;20668;-72
2021/10/05 11:57:12;;;;;;;16.43;14.83;;;15.10;99.90;;;;;;5111247;28;20262;-72
2021/10/05 11:59:39;;;;;;;17.50;15.67;;;15.10;99.90;;;;;;5110895;28;20704;-72
2021/10/05 12:02:09;;;;;;;17.83;16.03;;;15.10;99.90;;;;;;5111061;28;20226;-72
2021/10/05 12:04:37;;;;;;;18.67;15.87;;;15.10;99.90;;;;;;5111236;28;20605;-72
2021/10/05 12:07:06;;;;;;;17.33;15.53;;;15.10;99.90;;;;;;5111135;27;20238;-72
2021/10/05 12:09:34;;;;;;;19.80;17.47;;;15.10;99.90;;;;;;5111245;28;20241;-72
2021/10/05 12:12:07;;;;;;;18.33;16.43;;;15.20;99.90;;;;;;5110907;28;20206;-72
2021/10/05 12:14:36;;;;;;;18.53;16.63;;;15.20;99.90;;;;;;5110994;28;20251;-72
2021/10/05 12:17:05;;;;;;;18.27;16.37;;;15.20;99.90;;;;;;5110782;28;20206;-72
2021/10/05 12:19:34;;;;;;;18.77;16.87;;;15.20;99.90;;;;;;5110459;28;20267;-72
2021/10/05 12:22:03;;;;;;;17.53;15.77;;;15.20;99.90;;;;;;5110850;28;20233;-72
2021/10/05 12:24:43;;;;;;;16.97;15.30;;;15.20;99.90;;;;;;5110847;28;20245;-72
2021/10/05 12:27:14;;;;;;;16.07;14.47;;;15.30;99.90;;;;;;5110653;28;20596;-72
2021/10/05 12:29:56;;;;;;;24.57;14.73;;;15.30;99.90;;;;;;5110773;28;20190;-72
2021/10/05 12:32:34;;;;;;;16.67;15.03;;;15.30;99.90;;;;;;5110546;28;20194;-72
2021/10/05 12:35:04;;;;;;;16.13;14.50;;;15.30;99.90;;;;;;5109984;28;20216;-72
2021/10/05 12:37:34;;;;;;;18.57;15.07;;;15.30;99.90;;;;;;5110374;28;20255;-72
2021/10/05 12:40:05;;;;;;;16.40;14.70;;;15.30;99.90;;;;;;5109949;28;20789;-72
2021/10/05 12:42:45;;;;;;;17.37;15.03;;;15.30;99.90;;;;;;5110291;28;20226;-72
2021/10/05 12:45:17;;;;;;;16.17;14.57;;;15.30;99.90;;;;;;5109236;28;20194;-72
2021/10/05 12:47:55;;;;;;;15.83;14.23;;;15.30;99.90;;;;;;5109706;28;20630;-72